Flight Track Log - Related Links

Times and Time Zones

All times are in EDT time to prevent confusion due to time zone crossing. See the ASQ5685 flight status page for this flight to view local times or setup timezone preferences in your user account.

Time Position Orientation Groundspeed Altitude Reporting Facility
EDT Latitude Longitude Course Direction KTS MPH feet Rate Location/Type
Fri 09:36:14 AM 33.6333 -84.4000 48° Northeast 168 193 2,100  Level Atlanta TRACON
Fri 09:37:08 AM 33.6333 -84.3333 90° East 229 264 3,400 2,105 Climbing Atlanta TRACON
Fri 09:38:00 AM 33.8541 -84.1696 73° East  Level Estimated
Fri 09:38:08 AM 33.6333 -84.2500 90° East 261 300 6,100  Level Atlanta TRACON
Fri 09:39:00 AM 33.9264 -84.0832 54° Northeast  Level Estimated
Fri 09:39:08 AM 33.6333 -84.1667 90° East 270 311 8,600  Level Atlanta TRACON
Fri 09:39:44 AM 33.6336 -84.1036 90° East 275 316 9,800 1,313 Climbing Atlanta Center
Fri 09:40:00 AM 33.9027 -83.9638 103° East  Level FlightAware Approximate
Fri 09:40:44 AM 33.6836 -84.0314 50° Northeast 292 336 10,700  Level Atlanta Center
Fri 09:41:00 AM 33.9758 -83.8782 48° Northeast  Level Estimated
Fri 09:41:44 AM 33.7503 -83.9489 46° Northeast 322 371 12,500  Level Atlanta Center
Fri 09:42:44 AM 33.8169 -83.8664 46° Northeast 342 394 14,300 1,600 Climbing Atlanta Center
Fri 09:43:44 AM 33.8836 -83.7761 48° Northeast 347 399 15,700 1,450 Climbing Atlanta Center
Fri 09:44:44 AM 33.9503 -83.6833 49° Northeast 360 414 17,200 1,300 Climbing Atlanta Center
Fri 09:45:44 AM 34.0125 -83.5853 53° Northeast 366 421 18,300 1,150 Climbing Atlanta Center
Fri 09:46:44 AM 34.0769 -83.4844 52° Northeast 366 421 19,500 1,100 Climbing Atlanta Center
Fri 09:47:44 AM 34.1389 -83.3836 53° Northeast 366 421 20,500 900 Climbing Atlanta Center
Fri 09:48:44 AM 34.2031 -83.2778 54° Northeast 377 434 21,300 750 Climbing Atlanta Center
Fri 09:49:44 AM 34.2711 -83.1717 52° Northeast 395 455 22,000 650 Climbing Atlanta Center
Fri 09:50:44 AM 34.3311 -83.0728 54° Northeast 400 460 22,600 650 Climbing Atlanta Center
Fri 09:51:44 AM 34.3989 -82.9589 54° Northeast 410 472 23,300 700 Climbing Atlanta Center
Fri 09:52:44 AM 34.4689 -82.8494 52° Northeast 412 474 24,000 700 Climbing Atlanta Center
Fri 09:53:44 AM 34.5408 -82.7350 53° Northeast 417 480 24,700 700 Climbing Atlanta Center
Fri 09:54:44 AM 34.6147 -82.6253 51° Northeast 417 480 25,400 700 Climbing Atlanta Center
Fri 09:55:44 AM 34.6800 -82.5106 55° Northeast 411 473 26,100 700 Climbing Atlanta Center
Fri 09:56:44 AM 34.7517 -82.3956 53° Northeast 417 480 26,800 700 Climbing Atlanta Center
Fri 09:57:44 AM 34.8211 -82.2828 53° Northeast 417 480 27,500 700 Climbing Atlanta Center
Fri 09:58:44 AM 34.8903 -82.1650 54° Northeast 417 480 28,200 750 Climbing Atlanta Center
Fri 09:59:44 AM 34.9656 -82.0442 53° Northeast 412 474 29,000 750 Climbing Atlanta Center
Fri 10:00:44 AM 35.0367 -81.9256 54° Northeast 412 474 29,700 650 Climbing Atlanta Center
Fri 10:01:44 AM 35.0931 -81.8203 57° Northeast 420 483 30,300 650 Climbing Atlanta Center
Fri 10:02:44 AM 35.1536 -81.7017 58° Northeast 413 475 31,000 350 Climbing Atlanta Center
Fri 10:03:44 AM 35.2181 -81.5831 56° Northeast 418 481 31,000  Level Atlanta Center
Fri 10:04:44 AM 35.2822 -81.4589 58° Northeast 424 488 31,000  Level Atlanta Center
Fri 10:05:44 AM 35.3442 -81.3372 58° Northeast 417 480 31,000  Level Atlanta Center
Fri 10:06:44 AM 35.4061 -81.2156 58° Northeast 422 486 31,000  Level Atlanta Center
Fri 10:07:44 AM 35.4722 -81.0883 57° Northeast 422 486 31,000  Level Atlanta Center
Fri 10:08:44 AM 35.5358 -80.9686 57° Northeast 422 486 31,000  Level Atlanta Center
Fri 10:09:44 AM 35.5994 -80.8461 57° Northeast 422 486 31,000  Level Atlanta Center
Fri 10:10:44 AM 35.6611 -80.7261 58° Northeast 417 480 31,000  Level Atlanta Center
Fri 10:12:53 AM 35.8006 -80.4553 58° Northeast 428 493 31,000  Level Washington Center
Fri 10:13:54 AM 35.8617 -80.3336 58° Northeast 421 484 31,000  Level Washington Center
Fri 10:14:52 AM 35.9228 -80.2142 58° Northeast 421 484 31,000  Level Washington Center
Fri 10:15:53 AM 35.9858 -80.0919 57° Northeast 416 479 31,000  Level Washington Center
Fri 10:16:53 AM 36.0397 -79.9872 58° Northeast 403 464 31,000  Level Washington Center
Fri 10:17:52 AM 36.1089 -79.8703 54° Northeast 403 464 31,000  Level Washington Center
Fri 10:18:53 AM 36.1756 -79.7503 55° Northeast 409 471 31,000 -198 Level Washington Center
Fri 10:19:53 AM 36.2489 -79.6228 54° Northeast 415 478 30,600 -600 Descending Washington Center
Fri 10:20:53 AM 36.3131 -79.5075 55° Northeast 427 491 29,800 -793 Descending Washington Center
Fri 10:21:54 AM 36.3886 -79.3667 56° Northeast 433 498 29,000 -793 Descending Washington Center
Fri 10:22:54 AM 36.4528 -79.2511 55° Northeast 444 511 28,200 -814 Descending Washington Center
Fri 10:23:52 AM 36.5342 -79.1153 53° Northeast 449 517 27,400 -807 Descending Washington Center
Fri 10:24:53 AM 36.6067 -78.9867 55° Northeast 449 517 26,600 -992 Descending Washington Center
Fri 10:25:53 AM 36.6772 -78.8525 57° Northeast 449 517 25,400 -722 Descending Washington Center
Fri 10:27:06 AM 36.7450 -78.7283 56° Northeast 450 518 25,000 -183 Descending Washington Center
Fri 10:28:04 AM 36.8239 -78.5836 56° Northeast 432 497 25,000 -559 Level Washington Center
Fri 10:29:04 AM 36.8969 -78.4956 44° Northeast 411 473 23,900 -1,240 Descending Washington Center
Fri 10:30:05 AM 36.9911 -78.3978 40° Northeast 411 473 22,500 -934 Descending Washington Center
Fri 10:31:06 AM 37.0831 -78.2994 40° Northeast 423 487 22,000 -248 Descending Washington Center
Fri 10:32:06 AM 37.1814 -78.1986 39° Northeast 416 479 22,000 -254 Level Washington Center
Fri 10:33:04 AM 37.2600 -78.1283 35° Northeast 404 465 21,500 -504 Descending Washington Center
Fri 10:34:05 AM 37.3594 -78.0583 29° Northeast 398 458 21,000 -248 Descending Washington Center
Fri 10:35:05 AM 37.4611 -77.9858 30° Northeast 407 468 21,000  Level Washington Center
Fri 10:36:06 AM 37.5711 -77.9003 32° Northeast 414 476 21,000 -50 Level Washington Center
Fri 10:37:06 AM 37.6622 -77.8347 30° Northeast 414 476 20,900 -1,250 Descending Washington Center
Fri 10:38:06 AM 37.7658 -77.7592 30° Northeast 419 482 18,500 -2,237 Descending Washington Center
Fri 10:39:04 AM 37.8650 -77.6856 30° Northeast 419 482 16,500 -2,390 Descending Washington Center
Fri 10:40:04 AM 37.9644 -77.6094 31° Northeast 397 457 13,800 -2,281 Descending Washington Center
Fri 10:41:05 AM 38.0403 -77.5561 29° Northeast 374 430 11,900 -1,820 Descending Washington Center
Fri 10:42:06 AM 38.1164 -77.5000 30° Northeast 342 394 10,100 -893 Descending Washington Center
Fri 10:43:06 AM 38.1839 -77.4489 31° Northeast 302 348 10,100 -51 Level Washington Center
Fri 10:44:04 AM 38.2533 -77.4056 26° Northeast 283 326 10,000 -661 Descending Washington Center
Fri 10:45:04 AM 38.3269 -77.3622 25° Northeast 278 320 8,800 -1,240 Descending Washington Center
Fri 10:46:05 AM 38.4042 -77.3589 North 273 314 7,500 -1,279 Descending Washington Center
Fri 10:47:06 AM 38.4792 -77.3633 357° North 273 314 6,200 -1,210 Descending Washington Center
Fri 10:48:04 AM 38.5522 -77.3678 357° North 273 314 5,100 -706 Descending Washington Center
Fri 10:49:05 AM 38.6272 -77.3669 360° North 273 314 4,800 -639 Descending Washington Center
Fri 10:50:06 AM 38.7003 -77.3658 North 273 314 3,800 -885 Descending Washington Center
Fri 10:51:07 AM 38.7833 -77.3500 North 260 299 3,000 -397 Descending Potomac TRACON
Fri 10:52:07 AM 38.8500 -77.3500 360° North 247 284 3,000  Level Potomac TRACON
Fri 10:53:02 AM 38.9167 -77.3500 360° North 251 289 3,000  Level Potomac TRACON
Fri 10:54:02 AM 38.9833 -77.3500 360° North 240 276 3,000 -100 Level Potomac TRACON
Fri 10:55:02 AM 39.0500 -77.3500 360° North 204 235 2,800 -200 Descending Potomac TRACON

Login

Don't have an account? Register now (free) for customized features, flight alerts, and more!